Forside
METAR-TAF:

METAR-TAF

Lufthavne :

Hagåtña, Guam, USA

Breddekreds: 13-29N, længdekreds: 144-48E, højde: 91 m

Aktuelle vejr

Denne rapport blev lavet for 8 minutter siden, kl. 20:54 UTC
Vind 6 kt fra nordøst
Temperatur 28°C
Fugtighed 94%
Tryk 1006 hPa
Sigt: 16.1 km
Nogle få skyer i en højde af 3400 ft
Nogle få skyer i en højde af 5000 ft

METAR: PGUM 142054Z 05006KT 10SM FEW034 FEW050 28/27 A2970 RMK AO2 SLP048 T02780267 53005

Tid: 07:02 (21:02 UTC)

Vejrudsigter

Denne rapport blev lavet for 3 timer og 29 minutter siden, kl. 17:33 UTC
Foreløbig gælder fra 14 på 18 UTC til 15 på 24 UTC
Vind 8 kt fra øst
Sigt: 10 km
Nogle få skyer i en højde af 2000 ft
Spredte skyer i en højde af 5000 ft
byger i nærheden
Fra 14 på 2300 UTC
Vind 14 kt fra øst
Sigt: 10 km
Spredte skyer i en højde af 1800 ft
Spredte skyer i en højde af 5000 ft
byger i nærheden

TAF: PGUM 141733Z 1418/1524 08008KT P6SM VCSH FEW020 SCT050 FM142300 09014KT P6SM VCSH SCT018 SCT050

Vejrobservationer og prognoser fra mere end 4000 lufthavne (METAR og TAF).

De gule og røde prikker repræsenterer de meteorologiske stationer.

Flyt musen over at se navnet på stationen.

Så klik over at se vejr observationer og prognoser.

At skifte det kort: Klik på de grønne knapper med et sort kors for at zoome ind; på den grønne knap med en bindestreg for at zoome ud; eller på de grønne pile for tilstødende kort.


METAR-TAF: